Time;durP1;ratioP1;P1;durP2;ratioP2;P2;SDS_P1;SDS_P2;PMS_P1;PMS_P2;Temp;Humidity;BMP_temperature;BMP_pressure;BME280_temperature;BME280_humidity;BME280_pressure;Samples;Min_cycle;Max_cycle;Signal;HPM_P1;HPM_P2
2022/03/27 00:00:39;;;;;;;33.55;18.45;;;;;;;;;;6231138;28;20103;-79
2022/03/27 00:03:41;;;;;;;33.92;17.60;;;;;;;;;;6218749;28;20049;-81
2022/03/27 00:06:42;;;;;;;33.13;16.90;;;;;;;;;;6217912;28;20466;-81
2022/03/27 00:09:44;;;;;;;32.33;16.60;;;;;;;;;;6216446;28;20115;-78
2022/03/27 00:12:45;;;;;;;32.00;16.35;;;;;;;;;;6215907;28;20034;-78
2022/03/27 00:15:47;;;;;;;29.75;16.48;;;;;;;;;;6218559;28;20054;-80
2022/03/27 00:18:50;;;;;;;31.40;16.13;;;;;;;;;;6219017;28;20069;-80
2022/03/27 00:21:51;;;;;;;36.23;19.30;;;;;;;;;;6218615;28;20121;-79
2022/03/27 00:24:53;;;;;;;44.55;21.33;;;;;;;;;;6212794;28;20057;-79
2022/03/27 00:27:54;;;;;;;41.25;20.98;;;;;;;;;;6213834;28;20040;-80
2022/03/27 00:30:56;;;;;;;37.20;20.92;;;;;;;;;;6213549;28;20050;-80
2022/03/27 00:33:58;;;;;;;38.33;20.77;;;;;;;;;;6215873;28;20113;-78
2022/03/27 00:36:59;;;;;;;35.00;18.98;;;;;;;;;;6214234;28;20053;-78
2022/03/27 00:40:01;;;;;;;32.78;17.85;;;;;;;;;;6212638;28;20132;-79
2022/03/27 00:43:04;;;;;;;32.20;17.95;;;;;;;;;;6213676;28;20053;-79
2022/03/27 00:46:06;;;;;;;39.53;19.00;;;;;;;;;;6220916;28;20069;-78
2022/03/27 00:49:08;;;;;;;34.37;18.90;;;;;;;;;;6215988;28;20046;-80
2022/03/27 00:52:10;;;;;;;37.28;19.27;;;;;;;;;;6215397;28;20604;-79
2022/03/27 00:55:12;;;;;;;42.45;20.27;;;;;;;;;;6213542;28;20535;-80
2022/03/27 00:58:14;;;;;;;39.92;20.30;;;;;;;;;;6212532;28;20038;-80
2022/03/27 01:01:25;;;;;;;37.88;20.10;;;;;;;;;;6212866;28;20199;-80
2022/03/27 01:04:28;;;;;;;35.28;18.25;;;;;;;;;;6212402;28;20436;-80
2022/03/27 01:07:32;;;;;;;31.20;18.40;;;;;;;;;;6244921;28;20124;-80
2022/03/27 01:10:34;;;;;;;38.55;18.77;;;;;;;;;;6214075;28;20511;-78
2022/03/27 01:13:36;;;;;;;34.65;17.75;;;;;;;;;;6213622;28;20097;-78
2022/03/27 01:16:41;;;;;;;34.42;16.88;;;;;;;;;;6214677;28;20041;-78
2022/03/27 01:19:51;;;;;;;33.47;17.55;;;;;;;;;;6230619;28;20073;-79
2022/03/27 01:22:53;;;;;;;32.92;17.95;;;;;;;;;;6214367;28;20042;-79
2022/03/27 01:25:55;;;;;;;31.75;17.42;;;;;;;;;;6248602;28;20050;-80
2022/03/27 01:28:57;;;;;;;36.60;17.70;;;;;;;;;;6221323;28;20288;-77
2022/03/27 01:31:58;;;;;;;35.00;17.58;;;;;;;;;;6229972;28;20128;-77
2022/03/27 01:35:00;;;;;;;33.75;17.15;;;;;;;;;;6214635;28;20504;-80
2022/03/27 01:38:02;;;;;;;32.22;17.38;;;;;;;;;;6237379;28;20224;-79
2022/03/27 01:41:04;;;;;;;35.08;17.70;;;;;;;;;;6225824;28;20125;-80
2022/03/27 01:44:08;;;;;;;31.05;16.27;;;;;;;;;;6229983;28;20054;-80
2022/03/27 01:47:10;;;;;;;38.80;16.67;;;;;;;;;;6231707;28;20128;-80
2022/03/27 01:50:12;;;;;;;31.35;16.83;;;;;;;;;;6228399;28;20491;-78
2022/03/27 01:53:13;;;;;;;31.92;16.73;;;;;;;;;;6215425;28;20515;-79
2022/03/27 01:56:15;;;;;;;35.10;16.17;;;;;;;;;;6216588;28;20125;-79
2022/03/27 01:59:20;;;;;;;34.03;16.15;;;;;;;;;;6227307;28;20092;-80
2022/03/27 02:02:25;;;;;;;33.63;18.10;;;;;;;;;;6225221;28;20905;-77
2022/03/27 02:05:27;;;;;;;28.08;15.73;;;;;;;;;;6213274;28;20057;-79
2022/03/27 02:08:29;;;;;;;32.05;16.15;;;;;;;;;;6214227;28;20100;-78
2022/03/27 02:11:32;;;;;;;29.77;15.48;;;;;;;;;;6215702;28;20045;-78
2022/03/27 02:14:33;;;;;;;31.02;15.93;;;;;;;;;;6222935;28;20069;-78
2022/03/27 02:17:38;;;;;;;28.08;15.48;;;;;;;;;;6215460;28;20157;-78
2022/03/27 02:20:40;;;;;;;30.35;14.85;;;;;;;;;;6214106;28;20050;-79
2022/03/27 02:23:42;;;;;;;30.05;16.55;;;;;;;;;;6212839;28;20049;-79
2022/03/27 02:26:45;;;;;;;33.15;16.23;;;;;;;;;;6215622;28;20176;-79
2022/03/27 02:29:47;;;;;;;;;;;;;;;;;;6228641;28;20109;-80
2022/03/27 02:32:48;;;;;;;34.17;15.45;;;;;;;;;;6239633;28;20422;-78
2022/03/27 02:35:50;;;;;;;32.00;16.77;;;;;;;;;;6236116;28;20046;-80
2022/03/27 02:38:52;;;;;;;32.17;16.25;;;;;;;;;;6242161;28;20109;-80
2022/03/27 02:41:53;;;;;;;33.00;16.40;;;;;;;;;;6242624;28;20518;-78
2022/03/27 02:44:55;;;;;;;31.77;17.02;;;;;;;;;;6226108;28;20080;-78
2022/03/27 02:47:57;;;;;;;30.75;16.45;;;;;;;;;;6240575;28;20041;-79
2022/03/27 02:50:59;;;;;;;30.92;16.75;;;;;;;;;;6243804;28;20120;-81
2022/03/27 02:54:02;;;;;;;32.03;16.75;;;;;;;;;;6221183;28;20038;-80
2022/03/27 02:57:03;;;;;;;32.50;16.80;;;;;;;;;;6219881;28;20062;-77
2022/03/27 03:00:08;;;;;;;28.10;16.00;;;;;;;;;;6216483;28;20050;-78
2022/03/27 03:03:10;;;;;;;33.88;16.65;;;;;;;;;;6233910;28;20065;-78
2022/03/27 03:06:13;;;;;;;28.52;14.65;;;;;;;;;;6219070;28;20050;-77
2022/03/27 03:09:15;;;;;;;31.70;15.57;;;;;;;;;;6219659;28;20634;-77
2022/03/27 03:12:16;;;;;;;28.45;15.77;;;;;;;;;;6218903;28;20085;-80
2022/03/27 03:15:18;;;;;;;36.08;16.65;;;;;;;;;;6239071;28;20549;-80
2022/03/27 03:18:20;;;;;;;29.98;16.70;;;;;;;;;;6242457;28;20038;-79
2022/03/27 03:21:22;;;;;;;32.53;15.35;;;;;;;;;;6244079;28;20126;-81
2022/03/27 03:24:27;;;;;;;28.33;15.13;;;;;;;;;;6240783;28;20045;-78
2022/03/27 03:27:29;;;;;;;35.75;16.10;;;;;;;;;;6242636;28;20068;-81
2022/03/27 03:30:30;;;;;;;28.48;13.85;;;;;;;;;;6219430;28;20496;-81
2022/03/27 03:33:32;;;;;;;26.63;12.63;;;;;;;;;;6217075;28;20516;-75
2022/03/27 03:36:34;;;;;;;27.88;14.48;;;;;;;;;;6225724;28;20132;-78
2022/03/27 03:39:36;;;;;;;27.75;13.88;;;;;;;;;;6241871;28;20114;-81
2022/03/27 03:42:37;;;;;;;26.33;14.23;;;;;;;;;;6240689;28;20072;-78
2022/03/27 03:45:39;;;;;;;25.85;14.27;;;;;;;;;;6218085;28;20089;-76
2022/03/27 03:48:41;;;;;;;31.10;15.05;;;;;;;;;;6216991;28;20514;-76
2022/03/27 03:51:42;;;;;;;25.83;14.48;;;;;;;;;;6215971;28;20080;-78
2022/03/27 03:54:44;;;;;;;29.58;14.90;;;;;;;;;;6213181;28;20069;-80
2022/03/27 03:57:46;;;;;;;33.38;14.57;;;;;;;;;;6215759;28;20122;-78
2022/03/27 04:00:48;;;;;;;29.25;14.48;;;;;;;;;;6215166;28;20162;-78
2022/03/27 04:03:49;;;;;;;29.08;14.55;;;;;;;;;;6215973;28;20044;-80
2022/03/27 04:06:51;;;;;;;27.75;14.38;;;;;;;;;;6216733;28;20048;-81
2022/03/27 04:09:53;;;;;;;25.27;12.63;;;;;;;;;;6214734;28;20046;-80
2022/03/27 04:12:55;;;;;;;25.67;12.38;;;;;;;;;;6215595;28;20058;-80
2022/03/27 04:15:56;;;;;;;27.08;13.68;;;;;;;;;;6214976;28;20100;-79
2022/03/27 04:18:58;;;;;;;30.50;14.13;;;;;;;;;;6216243;28;20500;-81
2022/03/27 04:21:59;;;;;;;28.60;13.75;;;;;;;;;;6213800;28;20073;-81
2022/03/27 04:25:02;;;;;;;30.15;13.55;;;;;;;;;;6215266;28;20076;-79
2022/03/27 04:28:05;;;;;;;27.27;12.90;;;;;;;;;;6215912;28;20205;-80
2022/03/27 04:31:07;;;;;;;25.98;13.13;;;;;;;;;;6239302;28;20069;-81
2022/03/27 04:34:08;;;;;;;29.70;13.38;;;;;;;;;;6242059;28;20073;-80
2022/03/27 04:37:10;;;;;;;29.42;13.43;;;;;;;;;;6229236;28;20454;-80
2022/03/27 04:40:13;;;;;;;25.40;12.57;;;;;;;;;;6221223;28;20062;-78
2022/03/27 04:43:15;;;;;;;;;;;;;;;;;;6224563;28;20045;-79
2022/03/27 04:46:17;;;;;;;25.38;11.80;;;;;;;;;;6233592;28;19980;-80
2022/03/27 04:49:19;;;;;;;28.27;13.13;;;;;;;;;;6241526;28;20048;-80
2022/03/27 04:52:21;;;;;;;23.67;12.50;;;;;;;;;;6217722;28;20129;-81
2022/03/27 04:55:22;;;;;;;26.40;13.73;;;;;;;;;;6215116;28;20176;-78
2022/03/27 04:58:24;;;;;;;28.85;13.55;;;;;;;;;;6215696;28;20049;-80
2022/03/27 05:01:26;;;;;;;32.13;14.10;;;;;;;;;;6215826;28;20050;-81
2022/03/27 05:04:28;;;;;;;29.42;14.00;;;;;;;;;;6216754;28;20048;-80
2022/03/27 05:07:30;;;;;;;26.70;12.52;;;;;;;;;;6216680;28;20129;-80
2022/03/27 05:10:32;;;;;;;30.90;12.15;;;;;;;;;;6240721;28;20168;-79
2022/03/27 05:13:33;;;;;;;27.10;12.32;;;;;;;;;;6236294;28;20064;-80
2022/03/27 05:16:35;;;;;;;25.83;12.98;;;;;;;;;;6238991;28;20045;-80
2022/03/27 05:19:37;;;;;;;29.88;13.82;;;;;;;;;;6240938;28;20171;-79
2022/03/27 05:22:39;;;;;;;32.00;13.95;;;;;;;;;;6240254;28;20056;-77
2022/03/27 05:25:41;;;;;;;26.52;13.43;;;;;;;;;;6239560;28;20057;-79
2022/03/27 05:28:42;;;;;;;30.27;13.30;;;;;;;;;;6230996;28;20062;-79
2022/03/27 05:31:45;;;;;;;28.65;13.93;;;;;;;;;;6215252;28;20121;-78
2022/03/27 05:34:47;;;;;;;31.15;14.32;;;;;;;;;;6215785;28;20038;-81
2022/03/27 05:37:49;;;;;;;28.17;13.63;;;;;;;;;;6228264;28;20129;-80
2022/03/27 05:40:51;;;;;;;29.80;13.48;;;;;;;;;;6215720;28;20180;-80
2022/03/27 05:43:53;;;;;;;31.13;14.43;;;;;;;;;;6215382;28;20458;-80
2022/03/27 05:46:54;;;;;;;26.23;12.90;;;;;;;;;;6216369;28;20515;-79
2022/03/27 05:49:56;;;;;;;26.83;12.65;;;;;;;;;;6215689;28;20524;-80
2022/03/27 05:52:58;;;;;;;24.02;11.88;;;;;;;;;;6215014;28;20901;-80
2022/03/27 05:56:00;;;;;;;27.25;12.82;;;;;;;;;;6214649;28;20169;-80
2022/03/27 05:59:01;;;;;;;27.75;12.73;;;;;;;;;;6215115;28;20581;-80
2022/03/27 06:02:03;;;;;;;26.40;12.32;;;;;;;;;;6213372;28;20396;-78
2022/03/27 06:05:05;;;;;;;27.17;13.00;;;;;;;;;;6212748;28;20615;-78
2022/03/27 06:08:07;;;;;;;29.23;13.13;;;;;;;;;;6230504;28;20120;-77
2022/03/27 06:11:09;;;;;;;25.83;12.88;;;;;;;;;;6218491;28;20069;-80
2022/03/27 06:14:10;;;;;;;26.75;13.30;;;;;;;;;;6219337;28;20192;-79
2022/03/27 06:17:12;;;;;;;29.52;12.27;;;;;;;;;;6213012;28;20085;-77
2022/03/27 06:20:16;;;;;;;28.23;13.43;;;;;;;;;;6214655;28;20045;-79
2022/03/27 06:23:17;;;;;;;31.08;13.35;;;;;;;;;;6237092;28;20045;-78
2022/03/27 06:26:28;;;;;;;33.92;13.85;;;;;;;;;;6206412;28;20470;-76
2022/03/27 06:29:30;;;;;;;30.70;13.80;;;;;;;;;;6205569;28;20042;-78
2022/03/27 06:32:32;;;;;;;31.38;14.52;;;;;;;;;;6197661;28;20042;-78
2022/03/27 06:35:34;;;;;;;26.13;13.18;;;;;;;;;;6213678;28;20046;-78
2022/03/27 06:38:35;;;;;;;30.65;15.80;;;;;;;;;;6219163;28;20116;-79
2022/03/27 06:41:37;;;;;;;27.38;13.40;;;;;;;;;;6241613;28;20098;-78
2022/03/27 06:44:38;;;;;;;26.85;13.73;;;;;;;;;;6227365;28;20044;-79
2022/03/27 06:47:44;;;;;;;29.73;14.43;;;;;;;;;;6216350;28;20038;-78
2022/03/27 06:50:47;;;;;;;25.38;13.45;;;;;;;;;;6238488;28;20045;-79
2022/03/27 06:53:49;;;;;;;25.33;13.20;;;;;;;;;;6216365;28;20054;-78
2022/03/27 06:56:50;;;;;;;25.05;13.07;;;;;;;;;;6218328;28;20445;-79
2022/03/27 07:03:12;;;;;;;27.95;14.40;;;;;;;;;;6217365;28;20167;-76
2022/03/27 07:06:14;;;;;;;28.42;13.60;;;;;;;;;;6215211;28;20512;-77
2022/03/27 07:09:18;;;;;;;25.70;13.25;;;;;;;;;;6231147;28;20103;-77
2022/03/27 07:12:20;;;;;;;27.05;14.57;;;;;;;;;;6239866;28;20049;-78
2022/03/27 07:15:21;;;;;;;28.48;14.82;;;;;;;;;;6218936;28;20068;-76
2022/03/27 07:18:24;;;;;;;30.23;14.38;;;;;;;;;;6212103;28;20127;-76
2022/03/27 07:21:25;;;;;;;29.02;15.07;;;;;;;;;;6237720;28;20411;-77
2022/03/27 07:24:28;;;;;;;30.38;13.93;;;;;;;;;;6213432;28;20572;-78
2022/03/27 07:27:31;;;;;;;25.13;13.85;;;;;;;;;;6216026;28;20042;-77
2022/03/27 07:30:33;;;;;;;30.40;14.32;;;;;;;;;;6213550;28;20092;-78
2022/03/27 07:33:34;;;;;;;30.33;13.98;;;;;;;;;;6214455;28;20042;-78
2022/03/27 07:36:36;;;;;;;26.13;13.18;;;;;;;;;;6224018;28;20041;-78
2022/03/27 07:39:38;;;;;;;24.95;13.60;;;;;;;;;;6214426;28;20392;-77
2022/03/27 07:42:42;;;;;;;27.00;13.48;;;;;;;;;;6216175;28;20061;-77
2022/03/27 07:45:44;;;;;;;25.77;12.80;;;;;;;;;;6219317;28;20109;-78
2022/03/27 07:48:45;;;;;;;24.73;13.13;;;;;;;;;;6215313;28;20049;-78
2022/03/27 07:51:48;;;;;;;20.80;12.27;;;;;;;;;;6227959;28;20066;-78
2022/03/27 07:54:50;;;;;;;24.08;12.82;;;;;;;;;;6217629;28;20052;-77
2022/03/27 07:57:52;;;;;;;22.10;12.32;;;;;;;;;;6217306;28;20058;-78
2022/03/27 08:00:56;;;;;;;21.52;12.45;;;;;;;;;;6228288;28;20053;-78
2022/03/27 08:03:59;;;;;;;24.25;13.18;;;;;;;;;;6238396;28;20403;-79
2022/03/27 08:07:01;;;;;;;20.58;11.48;;;;;;;;;;6231340;28;20048;-76
2022/03/27 08:10:04;;;;;;;23.52;12.48;;;;;;;;;;6241779;28;20052;-78
2022/03/27 08:13:06;;;;;;;24.95;13.35;;;;;;;;;;6235748;28;20045;-79
2022/03/27 08:16:07;;;;;;;21.58;12.05;;;;;;;;;;6217078;28;20061;-80
2022/03/27 08:19:09;;;;;;;26.80;12.60;;;;;;;;;;6206786;28;20135;-77
2022/03/27 08:22:11;;;;;;;23.98;12.25;;;;;;;;;;6232544;28;20046;-78
2022/03/27 08:26:55;;;;;;;20.60;11.70;;;;;;;;;;6232206;28;20222;-80
2022/03/27 08:28:35;;;;;;;20.98;12.13;;;;;;;;;;6218197;28;20050;-80
2022/03/27 08:31:36;;;;;;;21.65;11.90;;;;;;;;;;6201340;28;20048;-78
2022/03/27 08:34:41;;;;;;;22.95;11.65;;;;;;;;;;6195138;28;20101;-78
2022/03/27 08:37:43;;;;;;;18.42;11.07;;;;;;;;;;6217418;28;20049;-77
2022/03/27 08:40:45;;;;;;;21.70;11.50;;;;;;;;;;6227899;28;20042;-79
2022/03/27 08:43:49;;;;;;;21.40;11.68;;;;;;;;;;6223188;28;20442;-81
2022/03/27 08:46:53;;;;;;;20.85;12.20;;;;;;;;;;6239664;28;20030;-79
2022/03/27 08:50:02;;;;;;;18.67;10.88;;;;;;;;;;6217496;28;20119;-78
2022/03/27 08:53:06;;;;;;;19.35;10.73;;;;;;;;;;6230669;28;20065;-78
2022/03/27 08:56:07;;;;;;;17.60;10.80;;;;;;;;;;6218675;28;20098;-77
2022/03/27 08:59:11;;;;;;;18.90;10.40;;;;;;;;;;6214885;28;20053;-77
2022/03/27 09:02:13;;;;;;;15.55;9.40;;;;;;;;;;6214434;28;20049;-77
2022/03/27 09:05:16;;;;;;;15.85;9.63;;;;;;;;;;6216053;28;20129;-78
2022/03/27 09:08:17;;;;;;;16.27;10.15;;;;;;;;;;6231647;28;20540;-77
2022/03/27 09:11:20;;;;;;;14.27;8.52;;;;;;;;;;6212920;28;20085;-76
2022/03/27 09:14:23;;;;;;;15.07;9.80;;;;;;;;;;6211870;28;20056;-78
2022/03/27 09:17:24;;;;;;;16.40;9.85;;;;;;;;;;6211494;28;20096;-77
2022/03/27 09:20:41;;;;;;;17.35;10.43;;;;;;;;;;6212837;28;20140;-78
2022/03/27 09:23:43;;;;;;;15.15;9.90;;;;;;;;;;6221409;28;20146;-77
2022/03/27 09:27:00;;;;;;;16.75;9.55;;;;;;;;;;6227044;28;20045;-80
2022/03/27 09:30:10;;;;;;;14.13;9.05;;;;;;;;;;6219538;28;20128;-77
2022/03/27 09:33:37;;;;;;;14.35;8.98;;;;;;;;;;6212009;28;20454;-78
2022/03/27 09:36:44;;;;;;;14.05;9.30;;;;;;;;;;6209632;28;20044;-78
2022/03/27 09:39:58;;;;;;;14.27;8.50;;;;;;;;;;6211715;28;20038;-78
2022/03/27 09:43:11;;;;;;;13.13;8.20;;;;;;;;;;6209901;28;20184;-77
2022/03/27 09:46:13;;;;;;;19.63;11.32;;;;;;;;;;6238073;28;20045;-78
2022/03/27 09:49:22;;;;;;;14.18;8.13;;;;;;;;;;6239317;28;20644;-78
2022/03/27 09:52:24;;;;;;;12.77;8.85;;;;;;;;;;6236757;28;20661;-78
2022/03/27 09:55:25;;;;;;;13.60;8.70;;;;;;;;;;6216668;28;20062;-78
2022/03/27 09:58:46;;;;;;;12.35;8.23;;;;;;;;;;6217254;28;20142;-77
2022/03/27 10:01:47;;;;;;;11.25;7.55;;;;;;;;;;6217252;28;20125;-77
2022/03/27 10:05:03;;;;;;;14.60;9.23;;;;;;;;;;6230555;28;20045;-78
2022/03/27 10:08:06;;;;;;;13.20;8.27;;;;;;;;;;6237542;28;20052;-78
2022/03/27 10:11:08;;;;;;;;;;;;;;;;;;6241719;28;20430;-78
2022/03/27 10:14:10;;;;;;;18.20;9.43;;;;;;;;;;6215808;28;19925;-78
2022/03/27 10:17:13;;;;;;;15.25;8.15;;;;;;;;;;6217025;28;20050;-78
2022/03/27 10:20:21;;;;;;;11.88;7.40;;;;;;;;;;6235902;28;20532;-78
2022/03/27 10:23:24;;;;;;;11.82;7.53;;;;;;;;;;6234980;28;20038;-78
2022/03/27 10:26:26;;;;;;;11.45;6.85;;;;;;;;;;6221334;28;20063;-78
2022/03/27 10:29:29;;;;;;;10.82;6.88;;;;;;;;;;6226362;28;20181;-78
2022/03/27 10:32:32;;;;;;;10.30;6.72;;;;;;;;;;6218846;28;20056;-78
2022/03/27 10:35:53;;;;;;;;;;;;;;;;;;6219477;28;20042;-77
2022/03/27 10:39:08;;;;;;;11.63;6.40;;;;;;;;;;6226044;28;19921;-78
2022/03/27 10:42:17;;;;;;;11.63;6.65;;;;;;;;;;6242708;28;20065;-78
2022/03/27 10:45:20;;;;;;;13.70;6.82;;;;;;;;;;6222652;28;20052;-77
2022/03/27 10:48:23;;;;;;;13.10;6.50;;;;;;;;;;6236525;28;20061;-76
2022/03/27 10:51:24;;;;;;;11.13;6.20;;;;;;;;;;6241372;28;20052;-78
2022/03/27 10:54:26;;;;;;;10.55;5.88;;;;;;;;;;6242524;28;20045;-78
2022/03/27 10:57:34;;;;;;;11.43;7.00;;;;;;;;;;6256855;28;20663;-77
2022/03/27 11:00:40;;;;;;;10.95;6.35;;;;;;;;;;6211945;28;20436;-77
2022/03/27 11:03:51;;;;;;;9.70;5.85;;;;;;;;;;6194021;28;20046;-78
2022/03/27 11:07:16;;;;;;;8.88;5.97;;;;;;;;;;6214639;28;20056;-78
2022/03/27 11:10:41;;;;;;;9.90;6.57;;;;;;;;;;6213466;28;20064;-77
2022/03/27 11:13:43;;;;;;;9.10;6.10;;;;;;;;;;6225547;28;20132;-77
2022/03/27 11:17:30;;;;;;;10.90;6.50;;;;;;;;;;6194952;28;20144;-77
2022/03/27 11:20:32;;;;;;;8.50;5.90;;;;;;;;;;6184372;28;20061;-77
2022/03/27 11:23:43;;;;;;;9.27;6.18;;;;;;;;;;6214379;28;20049;-76
2022/03/27 11:26:44;;;;;;;11.50;5.82;;;;;;;;;;6196497;28;20046;-76
2022/03/27 11:30:10;;;;;;;8.50;5.70;;;;;;;;;;6221691;28;20041;-77
2022/03/27 11:33:23;;;;;;;8.93;5.88;;;;;;;;;;6236313;28;20132;-77
2022/03/27 11:36:24;;;;;;;9.52;5.70;;;;;;;;;;6221337;28;20062;-77
2022/03/27 11:39:29;;;;;;;9.13;5.97;;;;;;;;;;6230120;28;20202;-77
2022/03/27 11:42:34;;;;;;;10.93;6.28;;;;;;;;;;6234440;28;20183;-77
2022/03/27 11:45:37;;;;;;;10.07;6.07;;;;;;;;;;6213970;28;20074;-78
2022/03/27 11:48:39;;;;;;;8.95;5.55;;;;;;;;;;6209407;28;20049;-77
2022/03/27 11:51:41;;;;;;;9.48;5.47;;;;;;;;;;6213433;28;20042;-77
2022/03/27 11:54:43;;;;;;;6.60;4.93;;;;;;;;;;6216757;28;20049;-77
2022/03/27 11:57:45;;;;;;;8.43;5.43;;;;;;;;;;6214297;28;20100;-76
2022/03/27 12:00:47;;;;;;;6.95;5.00;;;;;;;;;;6210043;28;20054;-78
2022/03/27 12:03:56;;;;;;;7.87;4.67;;;;;;;;;;6211791;28;20053;-79
2022/03/27 12:07:02;;;;;;;11.63;5.30;;;;;;;;;;6211731;28;20136;-78
2022/03/27 12:10:04;;;;;;;6.15;4.60;;;;;;;;;;6232510;28;20053;-78
2022/03/27 12:13:08;;;;;;;7.15;4.85;;;;;;;;;;6233070;28;20053;-78
2022/03/27 12:16:25;;;;;;;6.47;4.68;;;;;;;;;;6210356;28;20169;-79
2022/03/27 12:19:27;;;;;;;8.18;5.13;;;;;;;;;;6229704;28;20049;-78
2022/03/27 12:22:58;;;;;;;9.23;5.95;;;;;;;;;;6235553;28;20097;-76
2022/03/27 12:26:02;;;;;;;7.20;5.28;;;;;;;;;;6234336;28;20798;-77
2022/03/27 12:32:38;;;;;;;5.85;4.00;;;;;;;;;;6209533;28;20338;-80
2022/03/27 12:35:40;;;;;;;6.47;4.30;;;;;;;;;;6210119;28;20050;-76
2022/03/27 12:38:42;;;;;;;7.05;4.43;;;;;;;;;;6220749;28;20045;-76
2022/03/27 12:41:43;;;;;;;6.03;3.65;;;;;;;;;;6219526;28;20119;-78
2022/03/27 12:44:49;;;;;;;5.80;4.20;;;;;;;;;;6224389;28;20133;-79
2022/03/27 12:47:52;;;;;;;5.55;4.15;;;;;;;;;;6212286;28;20120;-77
2022/03/27 12:50:55;;;;;;;;;;;;;;;;;;6235214;28;20068;-78
2022/03/27 12:54:14;;;;;;;7.80;4.28;;;;;;;;;;6212758;28;20055;-78
2022/03/27 12:57:16;;;;;;;6.80;4.10;;;;;;;;;;6210538;28;20216;-78
2022/03/27 13:00:19;;;;;;;6.30;4.35;;;;;;;;;;6207485;28;20112;-78
2022/03/27 13:03:24;;;;;;;7.80;4.40;;;;;;;;;;6208451;28;20087;-78
2022/03/27 13:07:03;;;;;;;4.88;3.80;;;;;;;;;;6213139;28;20049;-79
2022/03/27 13:10:11;;;;;;;6.95;3.85;;;;;;;;;;6232706;28;20098;-78
2022/03/27 13:13:13;;;;;;;6.22;3.88;;;;;;;;;;6230999;28;20143;-78
2022/03/27 13:16:29;;;;;;;5.35;3.92;;;;;;;;;;6232244;28;20053;-78
2022/03/27 13:19:42;;;;;;;6.53;4.00;;;;;;;;;;6210639;28;20069;-77
2022/03/27 13:22:44;;;;;;;4.35;3.60;;;;;;;;;;6227004;28;20042;-76
2022/03/27 13:25:46;;;;;;;6.32;3.95;;;;;;;;;;6204559;28;20566;-78
2022/03/27 13:28:48;;;;;;;5.35;3.55;;;;;;;;;;6205542;28;20100;-76
2022/03/27 13:31:50;;;;;;;6.13;3.95;;;;;;;;;;6203991;28;20057;-78
2022/03/27 13:34:52;;;;;;;6.07;4.15;;;;;;;;;;6209823;28;20038;-78
2022/03/27 13:37:54;;;;;;;5.47;3.90;;;;;;;;;;6235398;28;20041;-77
2022/03/27 13:44:18;;;;;;;7.15;3.97;;;;;;;;;;6225663;28;20123;-77
2022/03/27 13:47:21;;;;;;;4.95;3.40;;;;;;;;;;6229206;28;20092;-78
2022/03/27 13:50:23;;;;;;;;;;;;;;;;;;6213696;28;20044;-77
2022/03/27 13:53:25;;;;;;;4.13;3.45;;;;;;;;;;6193438;28;20508;-78
2022/03/27 13:56:27;;;;;;;4.63;3.45;;;;;;;;;;6235397;28;20127;-78
2022/03/27 13:59:28;;;;;;;5.30;3.90;;;;;;;;;;6219109;28;20125;-77
2022/03/27 14:02:30;;;;;;;4.57;3.53;;;;;;;;;;6224581;28;20132;-76
2022/03/27 14:05:32;;;;;;;6.03;3.27;;;;;;;;;;6233929;28;20068;-78
2022/03/27 14:08:33;;;;;;;5.43;3.40;;;;;;;;;;6213596;28;20038;-77
2022/03/27 14:11:36;;;;;;;6.63;3.47;;;;;;;;;;6249720;28;20110;-78
2022/03/27 14:14:38;;;;;;;5.63;3.88;;;;;;;;;;6238769;28;20119;-77
2022/03/27 14:17:39;;;;;;;4.72;2.95;;;;;;;;;;6232067;28;20662;-77
2022/03/27 14:20:41;;;;;;;5.78;3.03;;;;;;;;;;6236774;28;20033;-77
2022/03/27 14:23:44;;;;;;;4.97;3.35;;;;;;;;;;6216436;28;20053;-75
2022/03/27 14:26:45;;;;;;;4.72;3.40;;;;;;;;;;6239915;28;20148;-77
2022/03/27 14:29:47;;;;;;;4.60;3.72;;;;;;;;;;6232157;28;20048;-78
2022/03/27 14:32:49;;;;;;;4.32;3.13;;;;;;;;;;6230626;28;20140;-78
2022/03/27 14:35:52;;;;;;;4.30;3.17;;;;;;;;;;6223410;28;20046;-77
2022/03/27 14:38:53;;;;;;;4.57;3.30;;;;;;;;;;6219602;28;20126;-77
2022/03/27 14:41:55;;;;;;;5.13;3.45;;;;;;;;;;6235769;28;20183;-78
2022/03/27 14:44:58;;;;;;;3.70;3.20;;;;;;;;;;6235276;28;20449;-76
2022/03/27 14:48:00;;;;;;;4.25;3.20;;;;;;;;;;6225896;28;20096;-78
2022/03/27 14:51:02;;;;;;;4.43;3.40;;;;;;;;;;6222802;28;20184;-77
2022/03/27 14:57:24;;;;;;;3.35;2.88;;;;;;;;;;6229323;28;20634;-80
2022/03/27 15:00:27;;;;;;;3.45;2.85;;;;;;;;;;6246489;28;20051;-78
2022/03/27 15:03:30;;;;;;;5.25;3.10;;;;;;;;;;6257456;28;20037;-80
2022/03/27 15:06:32;;;;;;;10.80;7.85;;;;;;;;;;6211996;28;20048;-81
2022/03/27 15:09:34;;;;;;;4.07;3.00;;;;;;;;;;6234889;28;20760;-83
2022/03/27 15:12:35;;;;;;;4.28;3.33;;;;;;;;;;6262478;28;20164;-81
2022/03/27 15:15:37;;;;;;;4.55;2.90;;;;;;;;;;6219140;28;20117;-78
2022/03/27 15:18:39;;;;;;;4.00;3.10;;;;;;;;;;6253381;28;20511;-79
2022/03/27 15:21:41;;;;;;;4.17;2.87;;;;;;;;;;6240695;28;20054;-81
2022/03/27 15:24:43;;;;;;;3.97;2.85;;;;;;;;;;6248521;28;20396;-83
2022/03/27 15:27:45;;;;;;;4.20;3.33;;;;;;;;;;6220317;28;20110;-77
2022/03/27 15:30:46;;;;;;;5.57;2.97;;;;;;;;;;6250890;28;20467;-80
2022/03/27 15:33:48;;;;;;;5.00;3.58;;;;;;;;;;6239747;28;20053;-79
2022/03/27 15:36:50;;;;;;;5.43;4.03;;;;;;;;;;6243584;28;20103;-80
2022/03/27 15:39:53;;;;;;;5.30;3.67;;;;;;;;;;6223487;28;20034;-81
2022/03/27 15:42:55;;;;;;;5.32;3.30;;;;;;;;;;6228044;28;20057;-77
2022/03/27 15:45:56;;;;;;;4.80;3.63;;;;;;;;;;6219238;28;20064;-78
2022/03/27 15:48:59;;;;;;;6.65;3.63;;;;;;;;;;6235321;28;20156;-82
2022/03/27 15:52:00;;;;;;;6.20;4.10;;;;;;;;;;6237508;28;20498;-80
2022/03/27 15:55:03;;;;;;;12.38;6.70;;;;;;;;;;6214716;28;20073;-78
2022/03/27 15:58:05;;;;;;;10.02;5.85;;;;;;;;;;6212900;28;20133;-78
2022/03/27 16:01:08;;;;;;;6.25;3.35;;;;;;;;;;6238445;28;20171;-77
2022/03/27 16:04:12;;;;;;;4.88;3.20;;;;;;;;;;6239584;28;20184;-80
2022/03/27 16:07:14;;;;;;;4.63;3.53;;;;;;;;;;6230580;28;20135;-80
2022/03/27 16:10:16;;;;;;;4.28;3.03;;;;;;;;;;6225393;28;20132;-80
2022/03/27 16:13:18;;;;;;;5.10;3.67;;;;;;;;;;6207704;28;20081;-79
2022/03/27 16:16:19;;;;;;;4.68;3.60;;;;;;;;;;6213700;28;20073;-78
2022/03/27 16:19:22;;;;;;;4.05;3.00;;;;;;;;;;6213613;28;20184;-77
2022/03/27 16:22:24;;;;;;;;;;;;;;;;;;6218752;28;20502;-80
2022/03/27 16:25:25;;;;;;;6.07;3.95;;;;;;;;;;6214422;28;19925;-81
2022/03/27 16:28:28;;;;;;;5.50;3.92;;;;;;;;;;6211627;28;20096;-79
2022/03/27 16:31:29;;;;;;;5.53;3.80;;;;;;;;;;6231275;28;20046;-80
2022/03/27 16:34:31;;;;;;;5.25;3.83;;;;;;;;;;6212401;28;20034;-79
2022/03/27 16:37:33;;;;;;;6.47;3.95;;;;;;;;;;6211192;28;20049;-80
2022/03/27 16:40:38;;;;;;;6.50;3.88;;;;;;;;;;6212524;28;20506;-81
2022/03/27 16:43:39;;;;;;;5.03;3.88;;;;;;;;;;6233751;28;20490;-81
2022/03/27 16:46:41;;;;;;;6.63;4.10;;;;;;;;;;6237748;28;20060;-79
2022/03/27 16:49:46;;;;;;;5.40;3.83;;;;;;;;;;6239562;28;20038;-79
2022/03/27 16:52:48;;;;;;;4.95;4.05;;;;;;;;;;6235076;28;20045;-80
2022/03/27 16:55:50;;;;;;;5.90;4.13;;;;;;;;;;6237124;28;20148;-78
2022/03/27 16:58:51;;;;;;;5.55;3.85;;;;;;;;;;6234624;28;20038;-78
2022/03/27 17:01:54;;;;;;;6.05;3.88;;;;;;;;;;6238977;28;20406;-79
2022/03/27 17:04:56;;;;;;;;;;;;;;;;;;6238713;28;20038;-80
2022/03/27 17:07:58;;;;;;;5.30;3.85;;;;;;;;;;6226241;28;20299;-79
2022/03/27 17:10:59;;;;;;;4.85;3.63;;;;;;;;;;6235957;28;20043;-79
2022/03/27 17:14:01;;;;;;;4.65;3.90;;;;;;;;;;6224290;28;20115;-79
2022/03/27 17:17:04;;;;;;;6.82;3.97;;;;;;;;;;6214151;28;20065;-78
2022/03/27 17:20:08;;;;;;;5.95;4.07;;;;;;;;;;6233808;28;20171;-81
2022/03/27 17:23:09;;;;;;;;;;;;;;;;;;6201803;28;20054;-80
2022/03/27 17:26:11;;;;;;;7.32;4.85;;;;;;;;;;6228902;28;19992;-80
2022/03/27 17:29:13;;;;;;;7.18;4.28;;;;;;;;;;6213022;28;20054;-78
2022/03/27 17:32:15;;;;;;;6.93;4.93;;;;;;;;;;6213848;28;20748;-80
2022/03/27 17:35:17;;;;;;;8.38;5.88;;;;;;;;;;6213182;28;20121;-78
2022/03/27 17:38:18;;;;;;;6.97;4.70;;;;;;;;;;6222693;28;20478;-80
2022/03/27 17:41:20;;;;;;;6.28;5.13;;;;;;;;;;6235570;28;20044;-79
2022/03/27 17:44:22;;;;;;;9.75;5.63;;;;;;;;;;6234109;28;20192;-80
2022/03/27 17:47:24;;;;;;;8.10;4.72;;;;;;;;;;6220687;28;20048;-80
2022/03/27 17:50:26;;;;;;;8.18;5.13;;;;;;;;;;6234346;28;20045;-80
2022/03/27 17:53:29;;;;;;;8.77;5.82;;;;;;;;;;6236228;28;20041;-78
2022/03/27 17:56:31;;;;;;;;;;;;;;;;;;6238206;28;20033;-78
2022/03/27 17:59:33;;;;;;;11.27;7.80;;;;;;;;;;6216092;28;19932;-79
2022/03/27 18:02:35;;;;;;;10.67;6.30;;;;;;;;;;6210510;28;20678;-79
2022/03/27 18:05:39;;;;;;;8.15;5.25;;;;;;;;;;6213469;28;20046;-80
2022/03/27 18:08:41;;;;;;;7.22;5.80;;;;;;;;;;6226933;28;20041;-78
2022/03/27 18:11:43;;;;;;;10.57;7.77;;;;;;;;;;6205162;28;20069;-78
2022/03/27 18:14:45;;;;;;;8.25;5.00;;;;;;;;;;6186855;28;20154;-78
2022/03/27 18:17:46;;;;;;;8.45;5.72;;;;;;;;;;6187835;28;20088;-78